Time;durP1;ratioP1;P1;durP2;ratioP2;P2;SDS_P1;SDS_P2;PMS_P1;PMS_P2;Temp;Humidity;BMP_temperature;BMP_pressure;BME280_temperature;BME280_humidity;BME280_pressure;Samples;Min_cycle;Max_cycle;Signal;HPM_P1;HPM_P2
2023/10/24 00:00:16;;;;;;;6.22;4.30;;;;;;;12.43;77.03;95887.91;4843251;29;20694;-77
2023/10/24 00:02:44;;;;;;;5.50;4.43;;;;;;;12.45;76.74;95891.09;4842779;29;20082;-77
2023/10/24 00:05:13;;;;;;;7.57;5.25;;;;;;;12.46;76.30;95888.28;4842625;29;20064;-77
2023/10/24 00:07:42;;;;;;;5.28;4.50;;;;;;;12.47;76.70;95889.88;4842753;29;20049;-77
2023/10/24 00:10:10;;;;;;;6.82;4.53;;;;;;;12.48;76.68;95890.66;4842780;29;20054;-78
2023/10/24 00:12:37;;;;;;;6.93;4.90;;;;;;;12.49;76.61;95877.38;4842551;29;20065;-78
2023/10/24 00:15:06;;;;;;;5.45;4.38;;;;;;;12.50;76.91;95867.72;4842479;29;20132;-77
2023/10/24 00:17:34;;;;;;;5.35;4.53;;;;;;;12.51;76.69;95864.09;4842331;29;20092;-77
2023/10/24 00:20:01;;;;;;;5.70;4.47;;;;;;;12.51;76.68;95861.50;4842247;29;20131;-77
2023/10/24 00:22:30;;;;;;;5.55;4.82;;;;;;;12.53;76.69;95851.63;4842125;29;20136;-77
2023/10/24 00:24:58;;;;;;;7.03;5.18;;;;;;;12.54;76.47;95853.22;4842090;29;20058;-77
2023/10/24 00:27:25;;;;;;;6.80;5.63;;;;;;;12.55;76.46;95854.78;4842481;29;20481;-77
2023/10/24 00:29:53;;;;;;;5.18;4.57;;;;;;;12.55;76.27;95862.66;4842278;29;20140;-77
2023/10/24 00:32:20;;;;;;;6.10;5.00;;;;;;;12.54;76.35;95856.63;4842366;29;20050;-77
2023/10/24 00:34:48;;;;;;;8.60;4.78;;;;;;;12.55;76.40;95844.34;4842017;29;20525;-77
2023/10/24 00:37:16;;;;;;;9.20;5.53;;;;;;;12.54;76.31;95832.28;4842224;29;20103;-78
2023/10/24 00:39:45;;;;;;;9.55;5.38;;;;;;;12.54;76.34;95832.28;4841919;29;20519;-77
2023/10/24 00:42:13;;;;;;;7.93;4.65;;;;;;;12.52;76.74;95832.47;4841907;29;20395;-77
2023/10/24 00:44:41;;;;;;;6.97;5.03;;;;;;;12.54;76.69;95843.53;4841934;29;20136;-77
2023/10/24 00:47:09;;;;;;;6.47;4.32;;;;;;;12.55;76.29;95844.34;4841827;29;20100;-77
2023/10/24 00:49:38;;;;;;;4.82;4.15;;;;;;;12.56;76.35;95845.94;4842096;29;20133;-78
2023/10/24 00:52:06;;;;;;;5.30;4.80;;;;;;;12.55;76.08;95850.38;4841936;29;20054;-77
2023/10/24 00:54:35;;;;;;;7.45;5.38;;;;;;;12.54;75.85;95846.16;4841962;29;20106;-77
2023/10/24 00:57:06;;;;;;;8.00;4.82;;;;;;;12.55;76.41;95846.94;4841804;29;20050;-77
2023/10/24 00:59:34;;;;;;;6.38;5.03;;;;;;;12.56;76.21;95856.41;4841804;29;20101;-77
2023/10/24 01:02:02;;;;;;;6.07;5.22;;;;;;;12.57;76.90;95852.78;4841218;29;20050;-77
2023/10/24 01:04:30;;;;;;;7.75;5.45;;;;;;;12.57;76.31;95853.59;4843231;29;20058;-77
2023/10/24 01:06:57;;;;;;;5.15;4.65;;;;;;;12.58;76.37;95851.78;4841690;29;20531;-77
2023/10/24 01:09:25;;;;;;;5.63;4.95;;;;;;;12.57;75.94;95850.97;4842766;29;20053;-78
2023/10/24 01:11:54;;;;;;;6.15;5.43;;;;;;;12.58;76.38;95843.94;4841972;29;20137;-77
2023/10/24 01:14:23;;;;;;;6.95;6.15;;;;;;;12.58;76.16;95836.06;4841953;29;20466;-77
2023/10/24 01:16:50;;;;;;;6.32;5.18;;;;;;;12.57;76.18;95839.69;4841482;29;20490;-78
2023/10/24 01:19:18;;;;;;;6.90;5.47;;;;;;;12.57;76.21;95835.28;4842062;29;20466;-77
2023/10/24 01:21:48;;;;;;;7.22;5.43;;;;;;;12.57;76.37;95837.06;4842023;29;20058;-77
2023/10/24 01:24:17;;;;;;;6.68;5.50;;;;;;;12.57;75.87;95834.47;4841439;29;20517;-77
2023/10/24 01:26:45;;;;;;;7.70;5.00;;;;;;;12.57;76.22;95829.22;4841280;29;20149;-78
2023/10/24 01:29:13;;;;;;;8.10;5.55;;;;;;;12.57;76.28;95834.47;4841426;29;21087;-78
2023/10/24 01:31:40;;;;;;;6.97;5.40;;;;;;;12.56;75.90;95830.25;4841620;29;20053;-77
2023/10/24 01:34:08;;;;;;;6.78;5.00;;;;;;;12.55;75.64;95820.78;4841717;29;20486;-77
2023/10/24 01:36:36;;;;;;;6.38;5.20;;;;;;;12.55;75.87;95831.25;4841798;29;20050;-77
2023/10/24 01:39:05;;;;;;;7.30;4.85;;;;;;;12.57;75.69;95818.75;4841645;29;20524;-77
2023/10/24 01:41:32;;;;;;;5.78;4.88;;;;;;;12.56;75.46;95811.94;4841088;29;20141;-77
2023/10/24 01:44:00;;;;;;;6.63;4.88;;;;;;;12.55;75.40;95799.88;4841350;29;20057;-77
2023/10/24 01:46:28;;;;;;;11.23;4.75;;;;;;;12.51;75.35;95791.66;4841497;29;20149;-77
2023/10/24 01:48:55;;;;;;;7.20;5.35;;;;;;;12.51;75.33;95796.09;4841552;29;20080;-78
2023/10/24 01:51:23;;;;;;;9.52;5.55;;;;;;;12.49;75.54;95803.34;4843762;29;20050;-77
2023/10/24 01:53:50;;;;;;;8.02;5.78;;;;;;;12.49;75.66;95801.53;4856130;29;20088;-78
2023/10/24 01:56:19;;;;;;;7.05;5.40;;;;;;;12.51;75.59;95817.03;4858369;29;20077;-78
2023/10/24 01:58:47;;;;;;;6.38;5.78;;;;;;;12.51;75.61;95823.06;4847220;29;20140;-77
2023/10/24 02:01:15;;;;;;;7.40;5.60;;;;;;;12.53;75.71;95830.69;4842497;29;20066;-77
2023/10/24 02:03:42;;;;;;;8.20;5.90;;;;;;;12.54;76.27;95829.66;4841650;29;20057;-77
2023/10/24 02:06:10;;;;;;;6.97;5.95;;;;;;;12.55;76.11;95823.41;4841056;29;20111;-77
2023/10/24 02:08:37;;;;;;;8.55;7.43;;;;;;;12.56;75.97;95830.25;4841416;29;20053;-77
2023/10/24 02:11:05;;;;;;;7.97;6.43;;;;;;;12.56;75.75;95825.03;4841567;29;20090;-77
2023/10/24 02:13:34;;;;;;;7.63;6.32;;;;;;;12.57;76.47;95824.00;4842693;29;20060;-77
2023/10/24 02:16:02;;;;;;;7.82;6.82;;;;;;;12.58;76.06;95830.84;4844577;29;20507;-77
2023/10/24 02:18:29;;;;;;;10.25;6.50;;;;;;;12.55;76.22;95812.94;4844885;29;20065;-78
2023/10/24 02:20:57;;;;;;;10.85;6.78;;;;;;;12.54;76.20;95820.00;4844555;29;20054;-77
2023/10/24 02:23:24;;;;;;;10.82;7.55;;;;;;;12.53;76.26;95821.03;4844611;29;20041;-77
2023/10/24 02:25:52;;;;;;;29.02;8.25;;;;;;;12.55;76.55;95828.63;4844655;29;20054;-77
2023/10/24 02:28:19;;;;;;;10.60;8.02;;;;;;;12.56;77.56;95830.25;4844680;29;20054;-77
2023/10/24 02:30:49;;;;;;;11.48;7.85;;;;;;;12.54;76.86;95833.06;4850047;29;20137;-78
2023/10/24 02:33:16;;;;;;;10.48;7.25;;;;;;;12.53;76.74;95830.69;4848244;29;20056;-77
2023/10/24 02:35:44;;;;;;;11.52;8.63;;;;;;;12.54;76.90;95842.75;4844133;29;20140;-77
2023/10/24 02:38:11;;;;;;;9.57;7.45;;;;;;;12.52;77.36;95844.78;4844360;29;20146;-77
2023/10/24 02:40:39;;;;;;;10.98;7.47;;;;;;;12.51;77.77;95838.75;4844059;29;20299;-77
2023/10/24 02:43:06;;;;;;;9.82;7.55;;;;;;;12.52;76.82;95844.78;4844313;29;20053;-77
2023/10/24 02:45:38;;;;;;;9.52;7.63;;;;;;;12.51;76.47;95843.97;4843734;29;20085;-77
2023/10/24 02:48:08;;;;;;;10.13;7.82;;;;;;;12.53;77.06;95843.78;4844140;29;20061;-77
2023/10/24 02:50:35;;;;;;;11.93;7.55;;;;;;;12.52;76.32;95831.69;4844089;29;20503;-77
2023/10/24 02:53:06;;;;;;;12.98;7.30;;;;;;;12.52;76.25;95823.84;4844127;29;20061;-77
2023/10/24 02:55:34;;;;;;;8.50;6.80;;;;;;;12.51;75.90;95822.25;4843930;29;20081;-77
2023/10/24 02:58:02;;;;;;;10.48;7.55;;;;;;;12.51;76.06;95832.72;4843835;29;20053;-78
2023/10/24 03:00:29;;;;;;;8.90;7.72;;;;;;;12.49;76.62;95837.34;4843782;29;20145;-77
2023/10/24 03:02:57;;;;;;;10.07;7.95;;;;;;;12.49;76.05;95835.53;4843307;29;20093;-77
2023/10/24 03:05:26;;;;;;;10.40;7.15;;;;;;;12.49;77.08;95832.13;4843564;29;20113;-77
2023/10/24 03:07:54;;;;;;;8.10;7.13;;;;;;;12.50;76.97;95828.47;4843919;29;20096;-77
2023/10/24 03:10:21;;;;;;;8.80;7.15;;;;;;;12.51;77.50;95824.88;4843724;29;20056;-77
2023/10/24 03:12:49;;;;;;;14.57;7.80;;;;;;;12.50;76.58;95825.88;4843532;29;20057;-77
2023/10/24 03:15:17;;;;;;;11.90;6.72;;;;;;;12.47;76.24;95831.53;4843640;29;20145;-77
2023/10/24 03:17:45;;;;;;;10.40;8.35;;;;;;;12.45;76.88;95823.09;4844437;29;20092;-77
2023/10/24 03:20:12;;;;;;;8.40;7.40;;;;;;;12.43;76.25;95830.34;4844081;29;20081;-77
2023/10/24 03:22:41;;;;;;;9.13;6.38;;;;;;;12.40;76.02;95830.75;4844208;29;20487;-77
2023/10/24 03:25:09;;;;;;;11.57;7.40;;;;;;;12.39;75.95;95837.03;4842898;29;20057;-77
2023/10/24 03:27:37;;;;;;;11.77;7.55;;;;;;;12.36;75.87;95825.16;4842877;29;20089;-77
2023/10/24 03:30:06;;;;;;;7.22;6.53;;;;;;;12.34;75.93;95819.34;4842288;29;20057;-77
2023/10/24 03:32:33;;;;;;;8.60;6.15;;;;;;;12.32;75.80;95809.09;4842086;29;20423;-77
2023/10/24 03:35:01;;;;;;;8.05;7.18;;;;;;;12.31;76.65;95810.13;4837370;29;20140;-77
2023/10/24 03:37:29;;;;;;;8.63;6.78;;;;;;;12.29;76.20;95799.06;4825965;29;20054;-77
2023/10/24 03:39:58;;;;;;;7.75;6.95;;;;;;;12.27;76.09;95811.56;4824042;29;20476;-76
2023/10/24 03:42:26;;;;;;;9.82;7.18;;;;;;;12.27;76.03;95813.38;4832990;29;20050;-77
2023/10/24 03:44:53;;;;;;;8.95;7.57;;;;;;;12.27;76.55;95811.56;4833155;29;20051;-77
2023/10/24 03:47:21;;;;;;;10.13;7.47;;;;;;;12.26;76.20;95812.53;4827236;29;20047;-77
2023/10/24 03:49:49;;;;;;;10.05;7.70;;;;;;;12.26;76.39;95809.94;4825514;29;20453;-78
2023/10/24 03:52:17;;;;;;;9.68;7.75;;;;;;;12.25;76.43;95792.66;4829751;29;20077;-78
2023/10/24 03:54:45;;;;;;;10.98;8.15;;;;;;;12.24;76.10;95813.78;4831055;29;20051;-79
2023/10/24 03:57:14;;;;;;;9.90;7.85;;;;;;;12.23;77.30;95812.97;4839877;29;20129;-77
2023/10/24 03:59:42;;;;;;;9.55;8.20;;;;;;;12.26;78.34;95815.16;4838033;29;20064;-77
2023/10/24 04:02:09;;;;;;;7.78;6.55;;;;;;;12.27;77.01;95803.69;4828029;29;20132;-76
2023/10/24 04:04:37;;;;;;;9.27;7.18;;;;;;;12.24;76.29;95811.94;4834997;29;20408;-77
2023/10/24 04:07:04;;;;;;;9.23;7.18;;;;;;;12.22;76.00;95808.75;4836724;29;20049;-77
2023/10/24 04:09:32;;;;;;;9.65;6.85;;;;;;;12.20;75.94;95804.75;4827820;29;20050;-77
2023/10/24 04:12:06;;;;;;;8.00;6.93;;;;;;;12.20;76.37;95810.81;4832920;29;20507;-77
2023/10/24 04:14:35;;;;;;;9.30;7.03;;;;;;;12.17;76.42;95795.50;4842953;29;20132;-76
2023/10/24 04:17:03;;;;;;;8.27;6.75;;;;;;;12.16;76.42;95793.94;4839018;29;20739;-77
2023/10/24 04:19:31;;;;;;;9.75;7.90;;;;;;;12.16;77.31;95791.31;4825270;29;20085;-78
2023/10/24 04:21:59;;;;;;;9.77;6.88;;;;;;;12.17;76.70;95782.44;4824882;29;20111;-78
2023/10/24 04:24:27;;;;;;;8.80;7.22;;;;;;;12.14;76.20;95773.22;4825046;29;20060;-77
2023/10/24 04:26:55;;;;;;;11.60;7.90;;;;;;;12.14;76.68;95772.41;4824442;29;20145;-77
2023/10/24 04:29:23;;;;;;;11.55;8.90;;;;;;;12.13;77.17;95778.66;4829570;29;20132;-77
2023/10/24 04:31:52;;;;;;;10.32;8.27;;;;;;;12.11;76.88;95780.66;4842381;29;20058;-76
2023/10/24 04:34:19;;;;;;;12.38;9.35;;;;;;;12.10;76.63;95771.25;4842136;29;20495;-76
2023/10/24 04:36:47;;;;;;;10.13;8.73;;;;;;;12.11;76.53;95770.22;4840039;29;20126;-76
2023/10/24 04:39:15;;;;;;;15.43;9.13;;;;;;;12.12;76.50;95771.81;4848798;29;20080;-77
2023/10/24 04:41:42;;;;;;;11.63;9.20;;;;;;;12.11;76.57;95770.22;4846099;29;20076;-76
2023/10/24 04:44:10;;;;;;;14.85;9.77;;;;;;;12.12;76.47;95766.59;4841588;29;20148;-76
2023/10/24 04:46:37;;;;;;;11.65;8.93;;;;;;;12.10;75.89;95758.16;4841931;29;20136;-77
2023/10/24 04:49:06;;;;;;;13.32;9.02;;;;;;;12.07;75.97;95769.84;4841709;29;20375;-76
2023/10/24 04:51:34;;;;;;;12.63;9.40;;;;;;;12.08;77.16;95786.34;4841920;29;20140;-77
2023/10/24 04:54:02;;;;;;;14.20;10.30;;;;;;;12.06;77.11;95788.34;4841999;29;20606;-76
2023/10/24 04:56:30;;;;;;;11.77;10.30;;;;;;;12.07;77.99;95784.72;4842006;29;20050;-76
2023/10/24 04:58:57;;;;;;;12.00;10.25;;;;;;;12.06;76.94;95770.06;4842407;29;20097;-77
2023/10/24 05:01:25;;;;;;;12.98;9.70;;;;;;;12.03;76.35;95765.25;4841973;29;20145;-76
2023/10/24 05:03:52;;;;;;;12.40;9.27;;;;;;;12.01;76.40;95759.44;4842036;29;20070;-76
2023/10/24 05:06:21;;;;;;;18.17;9.85;;;;;;;12.00;76.07;95757.81;4847946;29;20077;-77
2023/10/24 05:08:49;;;;;;;13.40;9.88;;;;;;;11.98;75.92;95749.38;4858951;29;20057;-77
2023/10/24 05:11:17;;;;;;;15.35;10.70;;;;;;;11.95;75.93;95732.31;4855311;29;20086;-76
2023/10/24 12:27:43;;;;;;;7.50;6.22;;;;;;;13.71;83.08;95593.09;4830345;29;20031;-79
2023/10/24 12:30:46;;;;;;;7.75;6.95;;;;;;;13.73;83.06;95601.53;4830439;29;20567;-79
2023/10/24 12:47:06;;;;;;;4.35;3.58;;;;;;;13.75;83.63;95597.69;4891788;24;20050;-79
2023/10/24 12:49:57;;;;;;;4.20;3.80;;;;;;;13.76;83.34;95593.22;4866245;29;20049;-80
2023/10/24 12:53:05;;;;;;;5.30;4.15;;;;;;;13.74;83.48;95580.34;4866239;29;20054;-79
2023/10/24 12:55:58;;;;;;;5.22;4.35;;;;;;;13.77;83.70;95584.31;4866194;29;20054;-79
2023/10/24 12:58:27;;;;;;;4.28;3.70;;;;;;;13.80;83.83;95581.28;4858260;24;20528;-75
2023/10/24 13:00:56;;;;;;;4.43;3.67;;;;;;;13.81;84.03;95575.00;4841545;29;20431;-75
2023/10/24 13:03:25;;;;;;;4.57;3.65;;;;;;;13.82;84.10;95579.22;4841691;29;20081;-75
2023/10/24 13:05:52;;;;;;;5.50;3.50;;;;;;;13.82;83.69;95581.84;4841570;29;20106;-75
2023/10/24 13:08:20;;;;;;;4.90;3.97;;;;;;;13.82;83.92;95579.22;4841427;29;20062;-74
2023/10/24 13:10:47;;;;;;;3.58;3.28;;;;;;;13.81;83.48;95569.75;4841677;29;20294;-75
2023/10/24 13:13:15;;;;;;;3.67;2.90;;;;;;;13.80;83.33;95570.78;4853934;29;20064;-75
2023/10/24 13:15:43;;;;;;;5.75;3.78;;;;;;;13.79;83.43;95566.56;4840914;29;20133;-75
2023/10/24 13:18:10;;;;;;;3.40;3.10;;;;;;;13.81;83.58;95564.50;4841387;29;20127;-74
2023/10/24 13:20:39;;;;;;;3.95;3.25;;;;;;;13.81;83.80;95561.88;4841510;29;20061;-75
2023/10/24 13:23:07;;;;;;;5.18;3.47;;;;;;;13.81;83.88;95559.25;4841192;29;20082;-75
2023/10/24 13:25:34;;;;;;;3.97;3.58;;;;;;;13.81;84.11;95557.44;4840925;29;20062;-75
2023/10/24 13:28:03;;;;;;;3.60;3.30;;;;;;;13.84;84.20;95558.81;4841044;29;20081;-75
2023/10/24 13:30:31;;;;;;;3.97;3.65;;;;;;;13.85;83.81;95547.31;4841201;29;20141;-75
2023/10/24 13:33:13;;;;;;;4.60;3.90;;;;;;;13.84;83.88;95558.81;4841261;29;20062;-75
2023/10/24 13:35:42;;;;;;;4.53;4.13;;;;;;;13.86;83.97;95561.19;4840818;29;20046;-75
2023/10/24 13:38:13;;;;;;;4.88;4.40;;;;;;;13.86;83.83;95548.88;4841328;29;20523;-75
2023/10/24 13:40:40;;;;;;;4.35;3.80;;;;;;;13.86;84.22;95541.03;4841363;29;20503;-75
2023/10/24 13:43:08;;;;;;;3.80;3.50;;;;;;;13.87;84.15;95549.69;4841071;29;20058;-75
2023/10/24 13:45:35;;;;;;;4.18;3.85;;;;;;;13.83;83.80;95557.22;4840730;29;20426;-74
2023/10/24 13:48:03;;;;;;;4.72;4.28;;;;;;;13.80;84.32;95555.06;4841046;29;20057;-74
2023/10/24 13:50:31;;;;;;;4.45;4.05;;;;;;;13.80;84.75;95560.31;4840916;29;20069;-75
2023/10/24 13:52:59;;;;;;;4.30;3.90;;;;;;;13.78;84.30;95555.28;4840922;29;20468;-74
2023/10/24 13:55:28;;;;;;;4.68;3.65;;;;;;;13.77;84.51;95555.50;4840839;29;20050;-75
2023/10/24 13:57:55;;;;;;;3.45;3.15;;;;;;;13.75;84.52;95545.25;4841039;29;20494;-75
2023/10/24 14:00:23;;;;;;;3.85;3.20;;;;;;;13.76;84.66;95551.28;4841118;29;20100;-75
2023/10/24 14:02:50;;;;;;;3.45;3.15;;;;;;;13.76;84.74;95546.06;4840958;29;20057;-75
2023/10/24 14:05:18;;;;;;;3.55;2.90;;;;;;;13.75;84.59;95533.97;4840679;29;20230;-75
2023/10/24 14:07:46;;;;;;;3.80;3.33;;;;;;;13.73;84.43;95544.69;4840610;29;20050;-75
2023/10/24 14:10:15;;;;;;;2.80;2.60;;;;;;;13.73;84.48;95546.50;4844095;29;20077;-75
2023/10/24 14:12:43;;;;;;;2.85;2.65;;;;;;;13.70;85.03;95541.72;4844398;29;20057;-75
2023/10/24 14:15:11;;;;;;;2.78;2.45;;;;;;;13.71;84.84;95538.06;4844179;29;20084;-75
2023/10/24 14:17:38;;;;;;;3.65;2.85;;;;;;;13.72;84.82;95545.69;4844147;29;20057;-75
2023/10/24 14:20:08;;;;;;;2.72;2.45;;;;;;;13.74;84.96;95542.84;4844108;29;20058;-75
2023/10/24 14:22:35;;;;;;;3.22;2.67;;;;;;;13.75;85.20;95547.06;4844375;29;20085;-75
2023/10/24 14:25:03;;;;;;;2.58;1.77;;;;;;;13.77;84.79;95545.84;4843951;29;20045;-74
2023/10/24 14:27:32;;;;;;;2.72;2.42;;;;;;;13.78;85.20;95544.00;4843955;29;20088;-75
2023/10/24 14:29:59;;;;;;;2.60;2.30;;;;;;;13.80;84.80;95544.56;4844404;29;20144;-75
2023/10/24 14:32:27;;;;;;;3.20;2.88;;;;;;;13.79;84.97;95537.72;4844200;29;20054;-75
2023/10/24 14:34:55;;;;;;;2.60;2.20;;;;;;;13.80;84.51;95537.50;4843766;29;20114;-75
2023/10/24 14:37:22;;;;;;;3.60;2.08;;;;;;;13.78;84.17;95533.53;4843891;29;20057;-75
2023/10/24 14:39:50;;;;;;;2.28;2.08;;;;;;;13.78;84.35;95538.75;4844213;29;20064;-75
2023/10/24 14:42:18;;;;;;;2.33;2.13;;;;;;;13.76;84.01;95556.53;4844000;29;20054;-75
2023/10/24 14:44:48;;;;;;;5.30;2.90;;;;;;;13.73;84.43;95552.56;4844046;29;20058;-75
2023/10/24 14:47:16;;;;;;;2.53;2.28;;;;;;;13.71;84.47;95551.16;4845264;29;20085;-75
2023/10/24 14:49:43;;;;;;;2.85;2.50;;;;;;;13.73;85.24;95557.78;4862464;29;20054;-75
2023/10/24 14:52:11;;;;;;;2.08;1.80;;;;;;;13.75;85.12;95552.31;4862773;29;20527;-74
2023/10/24 14:54:39;;;;;;;3.33;2.53;;;;;;;13.76;85.29;95561.78;4844160;29;20061;-75
2023/10/24 14:57:07;;;;;;;3.13;2.80;;;;;;;13.77;85.28;95563.34;4843444;29;20133;-75
2023/10/24 14:59:34;;;;;;;1.80;1.63;;;;;;;13.75;84.88;95554.94;4843611;29;20134;-75
2023/10/24 15:02:04;;;;;;;3.03;2.40;;;;;;;13.74;85.02;95562.00;4843448;29;20404;-75
2023/10/24 15:04:32;;;;;;;2.78;2.30;;;;;;;13.74;85.17;95561.22;4843879;29;20056;-75
2023/10/24 15:07:00;;;;;;;2.80;2.40;;;;;;;13.76;85.68;95567.03;4843283;29;20630;-75
2023/10/24 15:09:27;;;;;;;2.35;2.15;;;;;;;13.76;85.85;95564.41;4843431;29;20050;-75
2023/10/24 15:11:55;;;;;;;2.63;2.15;;;;;;;13.75;85.32;95562.78;4843481;29;20058;-75
2023/10/24 15:14:23;;;;;;;2.60;2.03;;;;;;;13.75;85.58;95565.41;4843245;29;20050;-75
2023/10/24 15:16:51;;;;;;;3.85;2.47;;;;;;;13.73;85.71;95570.06;4843171;29;20055;-75
2023/10/24 15:19:20;;;;;;;1.90;1.70;;;;;;;13.73;85.89;95567.44;4844505;29;20054;-75
2023/10/24 15:21:47;;;;;;;2.50;2.30;;;;;;;13.73;85.88;95559.59;4852883;29;20318;-75
2023/10/24 15:24:15;;;;;;;2.00;1.90;;;;;;;13.72;85.67;95561.41;4843540;29;20488;-75
2023/10/24 15:26:42;;;;;;;2.33;2.13;;;;;;;13.73;85.86;95557.78;4842969;29;20060;-75
2023/10/24 15:29:10;;;;;;;2.22;2.03;;;;;;;13.72;85.92;95560.63;4843092;29;20057;-75
2023/10/24 15:31:38;;;;;;;2.40;1.75;;;;;;;13.71;85.39;95548.53;4843209;29;20057;-75
2023/10/24 15:34:05;;;;;;;2.85;2.28;;;;;;;13.71;85.64;95543.28;4843317;29;20617;-75
2023/10/24 15:36:35;;;;;;;2.40;2.20;;;;;;;13.72;86.02;95550.16;4843117;29;20129;-75
2023/10/24 15:39:05;;;;;;;2.45;2.10;;;;;;;13.71;85.04;95559.03;4843329;29;20053;-75
2023/10/24 15:41:34;;;;;;;2.20;2.00;;;;;;;13.68;84.47;95549.00;4843008;29;20060;-75
2023/10/24 15:44:01;;;;;;;2.72;2.53;;;;;;;13.69;85.38;95550.63;4842002;29;20136;-77
2023/10/24 15:46:29;;;;;;;2.42;1.95;;;;;;;13.69;85.10;95545.38;4833626;29;20415;-77
2023/10/24 15:48:57;;;;;;;4.45;2.63;;;;;;;13.68;85.05;95559.47;4837979;29;20053;-75
2023/10/24 15:51:25;;;;;;;2.83;2.22;;;;;;;13.68;85.42;95559.47;4842438;29;20062;-75
2023/10/24 15:53:54;;;;;;;2.55;2.35;;;;;;;13.66;85.16;95553.66;4841696;29;20058;-75
2023/10/24 15:56:22;;;;;;;3.00;2.70;;;;;;;13.65;85.64;95552.88;4842439;29;20115;-75
2023/10/24 15:58:49;;;;;;;3.65;1.90;;;;;;;13.65;86.00;95550.25;4841994;29;20050;-75
2023/10/24 16:01:20;;;;;;;2.33;2.15;;;;;;;13.66;86.00;95548.44;4842435;29;20054;-75
2023/10/24 16:03:47;;;;;;;2.47;2.25;;;;;;;13.65;85.45;95544.22;4842588;29;20060;-75
2023/10/24 16:06:16;;;;;;;3.00;2.30;;;;;;;13.65;85.70;95554.72;4842266;29;20050;-74
2023/10/24 16:08:43;;;;;;;2.88;2.05;;;;;;;13.65;86.22;95546.84;4842301;29;20096;-75
2023/10/24 16:11:12;;;;;;;2.65;2.45;;;;;;;13.66;86.32;95543.19;4842707;29;20100;-75
2023/10/24 16:13:40;;;;;;;2.60;2.33;;;;;;;13.66;86.36;95537.94;4842437;29;20060;-75
2023/10/24 16:16:08;;;;;;;2.42;2.22;;;;;;;13.64;85.90;95547.84;4842216;29;20057;-75
2023/10/24 16:18:35;;;;;;;2.47;2.28;;;;;;;13.63;85.75;95544.44;4842198;29;20076;-75
2023/10/24 16:21:03;;;;;;;4.03;2.80;;;;;;;13.63;85.41;95546.28;4842234;29;20589;-75
2023/10/24 16:23:31;;;;;;;3.17;2.92;;;;;;;13.62;85.70;95550.69;4842517;29;20053;-75
2023/10/24 16:26:00;;;;;;;2.95;2.65;;;;;;;13.61;85.49;95549.09;4841935;29;20490;-75
2023/10/24 16:28:30;;;;;;;3.92;3.00;;;;;;;13.63;85.65;95535.78;4842378;29;20060;-75
2023/10/24 16:30:58;;;;;;;3.72;3.42;;;;;;;13.60;85.15;95535.22;4842141;29;20080;-75
2023/10/24 16:33:26;;;;;;;3.35;3.05;;;;;;;13.61;85.62;95536.00;4841903;29;20579;-75
2023/10/24 16:35:56;;;;;;;3.17;2.90;;;;;;;13.62;85.71;95536.81;4841851;29;20063;-74
2023/10/24 16:38:24;;;;;;;3.40;3.10;;;;;;;13.61;85.34;95541.25;4842029;29;20049;-76
2023/10/24 16:40:52;;;;;;;3.90;3.55;;;;;;;13.62;85.38;95529.72;4841975;29;20425;-75
2023/10/24 16:43:19;;;;;;;4.00;3.65;;;;;;;13.60;85.58;95527.34;4841820;29;20058;-75
2023/10/24 16:45:50;;;;;;;4.68;3.33;;;;;;;13.58;86.02;95534.66;4841487;29;20141;-75
2023/10/24 16:48:20;;;;;;;4.10;3.70;;;;;;;13.58;85.39;95534.66;4841478;29;20075;-75
2023/10/24 16:50:51;;;;;;;6.35;3.97;;;;;;;13.58;85.74;95534.66;4841848;29;20054;-75
2023/10/24 16:53:19;;;;;;;4.28;3.65;;;;;;;13.58;85.92;95539.88;4841789;29;20054;-75
2023/10/24 16:55:48;;;;;;;3.60;3.30;;;;;;;13.57;86.49;95538.28;4841551;29;20316;-75
2023/10/24 16:58:16;;;;;;;3.97;3.60;;;;;;;13.59;86.26;95541.47;4842218;29;20061;-75
2023/10/24 17:00:44;;;;;;;4.10;3.38;;;;;;;13.57;86.34;95543.50;4841922;29;20153;-75
2023/10/24 17:03:14;;;;;;;4.05;3.65;;;;;;;13.57;86.54;95543.50;4841645;29;20053;-77
2023/10/24 17:05:44;;;;;;;3.72;3.42;;;;;;;13.57;86.77;95547.97;4841290;29;20085;-75
2023/10/24 17:08:12;;;;;;;4.40;4.00;;;;;;;13.57;86.87;95546.13;4841398;29;20136;-75
2023/10/24 17:10:41;;;;;;;5.20;4.70;;;;;;;13.57;86.78;95546.13;4841722;29;20085;-75
2023/10/24 17:13:09;;;;;;;5.63;4.97;;;;;;;13.54;86.25;95549.22;4841462;29;20058;-75
2023/10/24 17:15:38;;;;;;;6.30;5.70;;;;;;;13.51;86.08;95547.06;4841351;29;20136;-75
2023/10/24 17:18:05;;;;;;;5.43;4.95;;;;;;;13.47;86.10;95545.91;4841434;29;20085;-75
2023/10/24 17:20:35;;;;;;;6.10;5.50;;;;;;;13.46;86.11;95546.91;4841502;29;20058;-75
2023/10/24 17:23:03;;;;;;;6.50;5.28;;;;;;;13.48;86.38;95544.88;4841342;29;20050;-75
2023/10/24 17:25:30;;;;;;;5.53;5.03;;;;;;;13.51;86.66;95548.84;4841303;29;20072;-74
2023/10/24 17:27:59;;;;;;;5.30;4.80;;;;;;;13.53;86.85;95546.81;4844255;29;20068;-75
2023/10/24 17:30:26;;;;;;;5.20;4.70;;;;;;;13.53;86.26;95541.56;4832829;29;20046;-75
2023/10/24 17:32:55;;;;;;;6.00;5.47;;;;;;;13.51;86.34;95541.00;4834178;29;20559;-75
2023/10/24 17:35:23;;;;;;;5.72;5.22;;;;;;;13.51;86.27;95541.81;4824193;29;20054;-75
2023/10/24 17:37:53;;;;;;;6.05;5.45;;;;;;;13.46;85.37;95535.66;4835808;29;20106;-76
2023/10/24 17:40:22;;;;;;;6.20;5.57;;;;;;;13.41;85.76;95533.72;4835918;29;20050;-74
2023/10/24 17:42:51;;;;;;;9.70;7.90;;;;;;;13.39;86.40;95530.50;4835296;29;20530;-74
2023/10/24 17:45:18;;;;;;;10.00;8.63;;;;;;;13.39;86.53;95531.31;4846125;29;20140;-75
2023/10/24 17:47:46;;;;;;;10.70;8.38;;;;;;;13.37;86.84;95541.22;4833796;29;20335;-76
2023/10/24 17:50:13;;;;;;;6.60;5.90;;;;;;;13.38;85.93;95544.63;4842751;29;20065;-75
2023/10/24 17:52:41;;;;;;;5.15;4.60;;;;;;;13.36;86.50;95546.69;4842639;29;20050;-75
2023/10/24 17:55:10;;;;;;;5.70;4.90;;;;;;;13.34;86.57;95544.28;4837732;29;20058;-75
2023/10/24 17:57:37;;;;;;;5.93;5.05;;;;;;;13.32;86.38;95541.09;4829024;29;20610;-75
2023/10/24 18:00:06;;;;;;;5.65;5.07;;;;;;;13.32;85.65;95564.66;4827455;29;20061;-75
2023/10/24 18:02:34;;;;;;;8.27;5.25;;;;;;;13.30;85.70;95558.84;4852290;29;20081;-76
2023/10/24 18:05:04;;;;;;;5.47;4.68;;;;;;;13.31;86.42;95565.66;4845331;29;20114;-75
2023/10/24 18:07:33;;;;;;;5.28;4.70;;;;;;;13.32;86.27;95561.25;4843631;29;20134;-75
2023/10/24 18:10:00;;;;;;;6.95;5.25;;;;;;;13.32;86.72;95561.25;4828546;29;20050;-75
2023/10/24 18:12:29;;;;;;;5.32;4.82;;;;;;;13.33;86.69;95568.06;4828434;29;20105;-74
2023/10/24 18:14:57;;;;;;;6.18;5.47;;;;;;;13.34;87.00;95564.44;4842942;29;20133;-75
2023/10/24 18:17:24;;;;;;;5.55;5.03;;;;;;;13.35;87.35;95561.59;4852411;29;20063;-75
2023/10/24 18:19:52;;;;;;;7.03;5.70;;;;;;;13.36;87.23;95552.72;4837301;29;20141;-75
2023/10/24 18:22:20;;;;;;;12.18;9.82;;;;;;;13.34;86.23;95559.22;4839403;29;20089;-75
2023/10/24 18:24:47;;;;;;;11.73;10.15;;;;;;;13.29;85.94;95561.69;4827223;29;20594;-74
2023/10/24 18:27:15;;;;;;;10.63;9.55;;;;;;;13.27;86.28;95558.47;4837011;29;20061;-75
2023/10/24 18:29:46;;;;;;;8.95;8.05;;;;;;;13.24;85.50;95561.53;4843381;29;20613;-75
2023/10/24 18:32:14;;;;;;;10.20;8.27;;;;;;;13.23;85.96;95573.84;4837747;29;20514;-74
2023/10/24 18:34:44;;;;;;;10.95;8.50;;;;;;;13.23;86.24;95571.22;4844097;29;20053;-76
2023/10/24 18:37:13;;;;;;;9.48;8.40;;;;;;;13.25;86.71;95573.59;4844163;29;20046;-75
2023/10/24 18:39:41;;;;;;;8.82;7.93;;;;;;;13.27;86.91;95575.00;4828178;29;20081;-75
2023/10/24 18:42:08;;;;;;;9.43;8.40;;;;;;;13.28;86.20;95575.78;4826664;29;20062;-75
2023/10/24 18:44:36;;;;;;;9.38;8.35;;;;;;;13.28;86.57;95579.22;4825894;29;20056;-75
2023/10/24 18:47:07;;;;;;;9.48;8.45;;;;;;;13.28;86.82;95581.84;4826178;29;20434;-75
2023/10/24 18:49:35;;;;;;;8.25;7.45;;;;;;;13.29;86.88;95588.66;4834571;29;20506;-74
2023/10/24 18:52:03;;;;;;;8.90;8.00;;;;;;;13.32;87.29;95583.00;4831114;29;20137;-74
2023/10/24 18:54:32;;;;;;;8.75;7.80;;;;;;;13.32;87.47;95583.00;4841768;29;20054;-74
2023/10/24 18:57:00;;;;;;;8.70;7.35;;;;;;;13.35;87.46;95589.59;4828247;29;20050;-76
2023/10/24 18:59:28;;;;;;;7.70;6.60;;;;;;;13.35;87.68;95592.22;4825440;29;20517;-75
2023/10/24 19:01:55;;;;;;;7.68;6.72;;;;;;;13.35;87.24;95597.47;4832506;29;20046;-75
2023/10/24 19:04:24;;;;;;;5.47;4.97;;;;;;;13.33;86.66;95602.13;4840900;29;20061;-74